FVSY weather

Siyalima Airport
Siyalima, Mashonaland Central Province, Zimbabwe

Public forecast

Using degrees Celsius for public forecast. Weather courtesy of forecast.io.

Closest aviation weather report (METAR) to Siyalima Airport

Closest report is Robert Gabriel Mugabe International Airport, 82.0 nm (151.9 km) SSE. Retrieved 2019/12/14 15:00 UTC (18 minutes ago):

FVRG 141500Z 17003KT CAVOK 26/14 Q1020 NOSIG

Closest aviation forecast (TAF) to Siyalima Airport

Closest forecast is Robert Gabriel Mugabe International Airport, 82.0 nm (151.9 km) SSE. Retrieved 2019/12/14 12:00 UTC (3 hours ago):

TAF FVRG 141000Z 1412/1518 06007KT 9999 BKN045 PROB30 TEMPO 1412/1418 9000 -TSRA FEW040CB BKN080 BECMG 1420/1422 CAVOK BECMG 1508/1510 VRB03KT 9999 SCT035 PROB30 TEMPO 1512/1518 -SHRA